sensor_id;sensor_type;location;lat;lon;timestamp;temperature;humidity
7427;DHT22;3755;59.316;18.092;2024-01-16T00:00:34;-10.50;99.90
7427;DHT22;3755;59.316;18.092;2024-01-16T00:03:06;-10.20;99.90
7427;DHT22;3755;59.316;18.092;2024-01-16T00:05:34;-10.50;99.90
7427;DHT22;3755;59.316;18.092;2024-01-16T00:08:03;-9.40;99.90
7427;DHT22;3755;59.316;18.092;2024-01-16T00:10:30;-10.60;99.90
7427;DHT22;3755;59.316;18.092;2024-01-16T00:12:57;-10.20;99.90
7427;DHT22;3755;59.316;18.092;2024-01-16T00:15:25;-9.70;99.90
7427;DHT22;3755;59.316;18.092;2024-01-16T00:17:52;-10.50;99.90
7427;DHT22;3755;59.316;18.092;2024-01-16T00:20:20;-10.50;99.90
7427;DHT22;3755;59.316;18.092;2024-01-16T00:22:49;-10.50;99.90
7427;DHT22;3755;59.316;18.092;2024-01-16T00:25:16;-10.60;99.90
7427;DHT22;3755;59.316;18.092;2024-01-16T00:27:45;-10.60;99.90
7427;DHT22;3755;59.316;18.092;2024-01-16T00:30:13;-10.60;99.90
7427;DHT22;3755;59.316;18.092;2024-01-16T00:32:40;-10.60;99.90
7427;DHT22;3755;59.316;18.092;2024-01-16T00:35:07;-10.70;99.90
7427;DHT22;3755;59.316;18.092;2024-01-16T00:37:37;-10.60;99.90
7427;DHT22;3755;59.316;18.092;2024-01-16T00:40:06;-10.20;99.90
7427;DHT22;3755;59.316;18.092;2024-01-16T00:42:34;-10.60;99.90
7427;DHT22;3755;59.316;18.092;2024-01-16T00:45:02;-10.70;99.90
7427;DHT22;3755;59.316;18.092;2024-01-16T00:47:30;-10.70;99.90
7427;DHT22;3755;59.316;18.092;2024-01-16T00:49:58;-10.10;99.90
7427;DHT22;3755;59.316;18.092;2024-01-16T00:52:26;-10.70;99.90
7427;DHT22;3755;59.316;18.092;2024-01-16T00:54:54;-10.70;99.90
7427;DHT22;3755;59.316;18.092;2024-01-16T00:57:21;-10.70;99.90
7427;DHT22;3755;59.316;18.092;2024-01-16T00:59:49;-10.70;99.90
7427;DHT22;3755;59.316;18.092;2024-01-16T01:02:16;-10.60;99.90
7427;DHT22;3755;59.316;18.092;2024-01-16T01:04:43;-10.80;99.90
7427;DHT22;3755;59.316;18.092;2024-01-16T01:07:13;-10.80;99.90
7427;DHT22;3755;59.316;18.092;2024-01-16T01:09:41;-10.80;99.90
7427;DHT22;3755;59.316;18.092;2024-01-16T01:12:09;-10.30;99.90
7427;DHT22;3755;59.316;18.092;2024-01-16T01:14:36;-10.90;99.90
7427;DHT22;3755;59.316;18.092;2024-01-16T01:17:03;-10.90;99.90
7427;DHT22;3755;59.316;18.092;2024-01-16T01:19:31;-10.80;99.90
7427;DHT22;3755;59.316;18.092;2024-01-16T01:21:58;-11.00;99.90
7427;DHT22;3755;59.316;18.092;2024-01-16T01:24:25;-11.00;99.90
7427;DHT22;3755;59.316;18.092;2024-01-16T01:26:52;-11.00;99.90
7427;DHT22;3755;59.316;18.092;2024-01-16T01:29:21;-11.10;99.90
7427;DHT22;3755;59.316;18.092;2024-01-16T01:31:48;-10.20;99.90
7427;DHT22;3755;59.316;18.092;2024-01-16T01:34:15;-10.40;99.90
7427;DHT22;3755;59.316;18.092;2024-01-16T01:36:42;-11.10;99.90
7427;DHT22;3755;59.316;18.092;2024-01-16T01:39:10;-10.50;99.90
7427;DHT22;3755;59.316;18.092;2024-01-16T01:41:38;-11.20;99.90
7427;DHT22;3755;59.316;18.092;2024-01-16T01:44:06;-11.20;99.90
7427;DHT22;3755;59.316;18.092;2024-01-16T01:46:42;-11.30;99.90
7427;DHT22;3755;59.316;18.092;2024-01-16T01:49:12;-11.30;99.90
7427;DHT22;3755;59.316;18.092;2024-01-16T01:51:41;-11.30;99.90
7427;DHT22;3755;59.316;18.092;2024-01-16T01:54:09;-11.50;99.90
7427;DHT22;3755;59.316;18.092;2024-01-16T01:56:37;-11.50;99.90
7427;DHT22;3755;59.316;18.092;2024-01-16T01:59:04;-11.50;99.90
7427;DHT22;3755;59.316;18.092;2024-01-16T02:01:34;-11.60;99.90
7427;DHT22;3755;59.316;18.092;2024-01-16T02:04:04;-11.60;99.90
7427;DHT22;3755;59.316;18.092;2024-01-16T02:06:33;-11.60;99.90
7427;DHT22;3755;59.316;18.092;2024-01-16T02:09:00;-11.70;99.90
7427;DHT22;3755;59.316;18.092;2024-01-16T02:11:27;-11.70;99.90
7427;DHT22;3755;59.316;18.092;2024-01-16T02:13:55;-11.50;99.90
7427;DHT22;3755;59.316;18.092;2024-01-16T02:16:23;-11.80;99.90
7427;DHT22;3755;59.316;18.092;2024-01-16T02:18:51;-11.70;99.90
7427;DHT22;3755;59.316;18.092;2024-01-16T02:21:21;-11.40;99.90
7427;DHT22;3755;59.316;18.092;2024-01-16T02:23:50;-11.80;99.90
7427;DHT22;3755;59.316;18.092;2024-01-16T02:26:18;-11.80;99.90
7427;DHT22;3755;59.316;18.092;2024-01-16T02:28:45;-11.80;99.90
7427;DHT22;3755;59.316;18.092;2024-01-16T02:31:12;-11.10;99.90
7427;DHT22;3755;59.316;18.092;2024-01-16T02:33:39;-11.90;99.90
7427;DHT22;3755;59.316;18.092;2024-01-16T02:36:07;-11.90;99.90
7427;DHT22;3755;59.316;18.092;2024-01-16T02:38:34;-11.90;99.90
7427;DHT22;3755;59.316;18.092;2024-01-16T02:41:04;-12.00;99.90
7427;DHT22;3755;59.316;18.092;2024-01-16T02:43:31;-12.00;99.90
7427;DHT22;3755;59.316;18.092;2024-01-16T02:45:58;-12.10;99.90
7427;DHT22;3755;59.316;18.092;2024-01-16T02:48:25;-12.00;99.90
7427;DHT22;3755;59.316;18.092;2024-01-16T02:50:53;-12.10;99.90
7427;DHT22;3755;59.316;18.092;2024-01-16T02:53:20;-12.10;99.90
7427;DHT22;3755;59.316;18.092;2024-01-16T02:55:47;-12.10;99.90
7427;DHT22;3755;59.316;18.092;2024-01-16T02:58:15;-12.20;99.90
7427;DHT22;3755;59.316;18.092;2024-01-16T03:00:43;-12.20;99.90
7427;DHT22;3755;59.316;18.092;2024-01-16T03:03:10;-12.20;99.90
7427;DHT22;3755;59.316;18.092;2024-01-16T03:05:37;-12.20;99.90
7427;DHT22;3755;59.316;18.092;2024-01-16T03:08:05;-12.30;99.90
7427;DHT22;3755;59.316;18.092;2024-01-16T03:10:32;-12.30;99.90
7427;DHT22;3755;59.316;18.092;2024-01-16T03:12:59;-12.30;99.90
7427;DHT22;3755;59.316;18.092;2024-01-16T03:15:28;-12.30;99.90
7427;DHT22;3755;59.316;18.092;2024-01-16T03:17:56;-12.20;99.90
7427;DHT22;3755;59.316;18.092;2024-01-16T03:20:24;-12.30;99.90
7427;DHT22;3755;59.316;18.092;2024-01-16T03:22:51;-12.30;99.90
7427;DHT22;3755;59.316;18.092;2024-01-16T03:25:19;-12.30;99.90
7427;DHT22;3755;59.316;18.092;2024-01-16T03:27:46;-12.30;99.90
7427;DHT22;3755;59.316;18.092;2024-01-16T03:30:14;-12.30;99.90
7427;DHT22;3755;59.316;18.092;2024-01-16T03:32:42;-12.30;99.90
7427;DHT22;3755;59.316;18.092;2024-01-16T03:35:09;-12.30;99.90
7427;DHT22;3755;59.316;18.092;2024-01-16T03:37:38;-12.30;99.90
7427;DHT22;3755;59.316;18.092;2024-01-16T03:40:06;-12.30;99.90
7427;DHT22;3755;59.316;18.092;2024-01-16T03:42:34;-12.30;99.90
7427;DHT22;3755;59.316;18.092;2024-01-16T03:45:01;-12.30;99.90
7427;DHT22;3755;59.316;18.092;2024-01-16T03:47:28;-12.30;99.90
7427;DHT22;3755;59.316;18.092;2024-01-16T03:49:56;-12.30;99.90
7427;DHT22;3755;59.316;18.092;2024-01-16T03:52:23;-12.30;99.90
7427;DHT22;3755;59.316;18.092;2024-01-16T03:54:50;-12.30;99.90
7427;DHT22;3755;59.316;18.092;2024-01-16T03:57:17;-11.90;99.90
7427;DHT22;3755;59.316;18.092;2024-01-16T03:59:45;-11.70;99.90
7427;DHT22;3755;59.316;18.092;2024-01-16T04:02:12;-12.20;99.90
7427;DHT22;3755;59.316;18.092;2024-01-16T04:04:40;-12.20;99.90
7427;DHT22;3755;59.316;18.092;2024-01-16T04:07:08;-12.20;99.90
7427;DHT22;3755;59.316;18.092;2024-01-16T04:09:35;-12.20;99.90
7427;DHT22;3755;59.316;18.092;2024-01-16T04:12:02;-12.30;99.90
7427;DHT22;3755;59.316;18.092;2024-01-16T04:14:30;-12.30;99.90
7427;DHT22;3755;59.316;18.092;2024-01-16T04:16:57;-12.20;99.90
7427;DHT22;3755;59.316;18.092;2024-01-16T04:19:24;-12.20;99.90
7427;DHT22;3755;59.316;18.092;2024-01-16T04:21:51;-12.20;99.90
7427;DHT22;3755;59.316;18.092;2024-01-16T04:24:19;-12.30;99.90
7427;DHT22;3755;59.316;18.092;2024-01-16T04:26:46;-12.30;99.90
7427;DHT22;3755;59.316;18.092;2024-01-16T04:29:13;-12.20;99.90
7427;DHT22;3755;59.316;18.092;2024-01-16T04:31:41;-11.50;99.90
7427;DHT22;3755;59.316;18.092;2024-01-16T04:34:10;-12.30;99.90
7427;DHT22;3755;59.316;18.092;2024-01-16T04:36:37;-12.20;99.90
7427;DHT22;3755;59.316;18.092;2024-01-16T04:39:04;-12.20;99.90
7427;DHT22;3755;59.316;18.092;2024-01-16T04:41:32;-12.20;99.90
7427;DHT22;3755;59.316;18.092;2024-01-16T04:43:59;-12.30;99.90
7427;DHT22;3755;59.316;18.092;2024-01-16T04:46:26;-12.30;99.90
7427;DHT22;3755;59.316;18.092;2024-01-16T04:48:54;-12.30;99.90
7427;DHT22;3755;59.316;18.092;2024-01-16T04:51:21;-12.40;99.90
7427;DHT22;3755;59.316;18.092;2024-01-16T04:53:51;-12.30;99.90
7427;DHT22;3755;59.316;18.092;2024-01-16T04:56:18;-12.30;99.90
7427;DHT22;3755;59.316;18.092;2024-01-16T04:58:46;-12.20;99.90
7427;DHT22;3755;59.316;18.092;2024-01-16T05:01:13;-12.20;99.90
7427;DHT22;3755;59.316;18.092;2024-01-16T05:03:43;-12.30;99.90
7427;DHT22;3755;59.316;18.092;2024-01-16T05:06:13;-12.30;99.90
7427;DHT22;3755;59.316;18.092;2024-01-16T05:08:41;-12.30;99.90
7427;DHT22;3755;59.316;18.092;2024-01-16T05:11:09;-12.30;99.90
7427;DHT22;3755;59.316;18.092;2024-01-16T05:13:36;-11.70;99.90
7427;DHT22;3755;59.316;18.092;2024-01-16T05:16:05;-12.30;99.90
7427;DHT22;3755;59.316;18.092;2024-01-16T05:18:33;-12.30;99.90
7427;DHT22;3755;59.316;18.092;2024-01-16T05:21:01;-12.30;99.90
7427;DHT22;3755;59.316;18.092;2024-01-16T05:23:28;-12.40;99.90
7427;DHT22;3755;59.316;18.092;2024-01-16T05:25:55;-12.50;99.90
7427;DHT22;3755;59.316;18.092;2024-01-16T05:28:22;-12.50;99.90
7427;DHT22;3755;59.316;18.092;2024-01-16T05:30:49;-12.50;99.90
7427;DHT22;3755;59.316;18.092;2024-01-16T05:33:18;-12.50;99.90
7427;DHT22;3755;59.316;18.092;2024-01-16T05:35:45;-12.60;99.90
7427;DHT22;3755;59.316;18.092;2024-01-16T05:38:12;-12.60;99.90
7427;DHT22;3755;59.316;18.092;2024-01-16T05:40:39;-12.70;99.90
7427;DHT22;3755;59.316;18.092;2024-01-16T05:43:07;-12.70;99.90
7427;DHT22;3755;59.316;18.092;2024-01-16T05:45:34;-12.70;99.90
7427;DHT22;3755;59.316;18.092;2024-01-16T05:48:03;-12.70;99.90
7427;DHT22;3755;59.316;18.092;2024-01-16T05:50:35;-12.80;99.90
7427;DHT22;3755;59.316;18.092;2024-01-16T05:53:07;-12.80;99.90
7427;DHT22;3755;59.316;18.092;2024-01-16T05:55:35;-12.90;99.90
7427;DHT22;3755;59.316;18.092;2024-01-16T05:58:08;-12.90;99.90
7427;DHT22;3755;59.316;18.092;2024-01-16T06:00:40;-12.90;99.90
7427;DHT22;3755;59.316;18.092;2024-01-16T06:03:09;-11.80;99.90
7427;DHT22;3755;59.316;18.092;2024-01-16T06:05:38;-12.00;99.90
7427;DHT22;3755;59.316;18.092;2024-01-16T06:08:10;-12.90;99.90
7427;DHT22;3755;59.316;18.092;2024-01-16T06:10:37;-12.20;99.90
7427;DHT22;3755;59.316;18.092;2024-01-16T06:13:05;-13.00;99.90
7427;DHT22;3755;59.316;18.092;2024-01-16T06:19:08;-13.00;99.90
7427;DHT22;3755;59.316;18.092;2024-01-16T06:25:11;-13.00;99.90
7427;DHT22;3755;59.316;18.092;2024-01-16T06:27:49;-12.90;99.90
7427;DHT22;3755;59.316;18.092;2024-01-16T06:30:17;-13.00;99.90
7427;DHT22;3755;59.316;18.092;2024-01-16T06:32:44;-13.00;99.90
7427;DHT22;3755;59.316;18.092;2024-01-16T06:35:12;-12.90;99.90
7427;DHT22;3755;59.316;18.092;2024-01-16T06:37:41;-13.00;99.90
7427;DHT22;3755;59.316;18.092;2024-01-16T06:43:12;-13.00;99.90
7427;DHT22;3755;59.316;18.092;2024-01-16T06:45:53;-13.00;99.90
7427;DHT22;3755;59.316;18.092;2024-01-16T06:48:22;-13.10;99.90
7427;DHT22;3755;59.316;18.092;2024-01-16T06:50:50;-13.10;99.90
7427;DHT22;3755;59.316;18.092;2024-01-16T06:53:31;-13.10;99.90
7427;DHT22;3755;59.316;18.092;2024-01-16T06:55:59;-13.10;99.90
7427;DHT22;3755;59.316;18.092;2024-01-16T06:58:30;-13.10;99.90
7427;DHT22;3755;59.316;18.092;2024-01-16T07:00:58;-13.10;99.90
7427;DHT22;3755;59.316;18.092;2024-01-16T07:03:26;-13.00;99.90
7427;DHT22;3755;59.316;18.092;2024-01-16T07:05:54;-13.10;99.90
7427;DHT22;3755;59.316;18.092;2024-01-16T07:08:21;-13.20;99.90
7427;DHT22;3755;59.316;18.092;2024-01-16T07:10:49;-13.20;99.90
7427;DHT22;3755;59.316;18.092;2024-01-16T07:13:17;-12.50;99.90
7427;DHT22;3755;59.316;18.092;2024-01-16T07:15:47;-13.20;99.90
7427;DHT22;3755;59.316;18.092;2024-01-16T07:18:23;-13.80;99.90
7427;DHT22;3755;59.316;18.092;2024-01-16T07:20:51;-13.20;99.90
7427;DHT22;3755;59.316;18.092;2024-01-16T07:23:20;-13.20;99.90
7427;DHT22;3755;59.316;18.092;2024-01-16T07:25:48;-13.20;99.90
7427;DHT22;3755;59.316;18.092;2024-01-16T07:28:15;-13.10;99.90
7427;DHT22;3755;59.316;18.092;2024-01-16T07:30:43;-13.10;99.90
7427;DHT22;3755;59.316;18.092;2024-01-16T07:33:12;-13.20;99.90
7427;DHT22;3755;59.316;18.092;2024-01-16T07:35:44;-12.20;99.90
7427;DHT22;3755;59.316;18.092;2024-01-16T07:38:13;-13.10;99.90
7427;DHT22;3755;59.316;18.092;2024-01-16T07:40:40;-12.90;99.90
7427;DHT22;3755;59.316;18.092;2024-01-16T07:43:08;-13.10;99.90
7427;DHT22;3755;59.316;18.092;2024-01-16T07:45:36;-13.40;99.90
7427;DHT22;3755;59.316;18.092;2024-01-16T07:48:07;-13.20;99.90
7427;DHT22;3755;59.316;18.092;2024-01-16T07:51:06;-13.10;99.90
7427;DHT22;3755;59.316;18.092;2024-01-16T07:54:04;-13.00;99.90
7427;DHT22;3755;59.316;18.092;2024-01-16T07:56:32;-12.30;99.90
7427;DHT22;3755;59.316;18.092;2024-01-16T07:59:02;-13.10;99.90
7427;DHT22;3755;59.316;18.092;2024-01-16T08:01:32;-13.10;99.90
7427;DHT22;3755;59.316;18.092;2024-01-16T08:04:00;-12.30;99.90
7427;DHT22;3755;59.316;18.092;2024-01-16T08:09:28;-13.10;99.90
7427;DHT22;3755;59.316;18.092;2024-01-16T08:11:58;-12.60;99.90
7427;DHT22;3755;59.316;18.092;2024-01-16T08:14:27;-13.10;99.90
7427;DHT22;3755;59.316;18.092;2024-01-16T08:16:54;-12.70;99.90
7427;DHT22;3755;59.316;18.092;2024-01-16T08:19:22;-13.20;99.90
7427;DHT22;3755;59.316;18.092;2024-01-16T08:22:06;-13.50;99.90
7427;DHT22;3755;59.316;18.092;2024-01-16T08:24:46;-13.20;99.90
7427;DHT22;3755;59.316;18.092;2024-01-16T08:27:14;-13.30;99.90
7427;DHT22;3755;59.316;18.092;2024-01-16T08:29:42;-13.60;99.90
7427;DHT22;3755;59.316;18.092;2024-01-16T08:32:10;-13.40;99.90
7427;DHT22;3755;59.316;18.092;2024-01-16T08:34:37;-14.10;99.90
7427;DHT22;3755;59.316;18.092;2024-01-16T08:37:06;-13.30;99.90
7427;DHT22;3755;59.316;18.092;2024-01-16T08:39:33;-13.30;99.90
7427;DHT22;3755;59.316;18.092;2024-01-16T08:42:01;-13.30;99.90
7427;DHT22;3755;59.316;18.092;2024-01-16T08:44:29;-12.30;99.90
7427;DHT22;3755;59.316;18.092;2024-01-16T08:46:56;-13.10;99.90
7427;DHT22;3755;59.316;18.092;2024-01-16T08:49:25;-12.60;99.90
7427;DHT22;3755;59.316;18.092;2024-01-16T08:51:52;-12.90;99.90
7427;DHT22;3755;59.316;18.092;2024-01-16T08:54:23;-12.90;99.90
7427;DHT22;3755;59.316;18.092;2024-01-16T08:56:52;-12.90;99.90
7427;DHT22;3755;59.316;18.092;2024-01-16T08:59:21;-12.90;99.90
7427;DHT22;3755;59.316;18.092;2024-01-16T09:01:48;-13.10;99.90
7427;DHT22;3755;59.316;18.092;2024-01-16T09:04:16;-12.10;99.90
7427;DHT22;3755;59.316;18.092;2024-01-16T09:06:43;-12.50;99.90
7427;DHT22;3755;59.316;18.092;2024-01-16T09:09:11;-12.80;99.90
7427;DHT22;3755;59.316;18.092;2024-01-16T09:11:43;-12.80;99.90
7427;DHT22;3755;59.316;18.092;2024-01-16T09:14:10;-12.70;99.90
7427;DHT22;3755;59.316;18.092;2024-01-16T09:16:37;-12.70;99.90
7427;DHT22;3755;59.316;18.092;2024-01-16T09:19:04;-12.20;99.90
7427;DHT22;3755;59.316;18.092;2024-01-16T09:21:32;-12.70;99.90
7427;DHT22;3755;59.316;18.092;2024-01-16T09:23:59;-12.60;99.90
7427;DHT22;3755;59.316;18.092;2024-01-16T09:26:26;-12.70;99.90
7427;DHT22;3755;59.316;18.092;2024-01-16T09:28:55;-13.00;99.90
7427;DHT22;3755;59.316;18.092;2024-01-16T09:31:22;-12.60;99.90
7427;DHT22;3755;59.316;18.092;2024-01-16T09:33:49;-12.60;99.90
7427;DHT22;3755;59.316;18.092;2024-01-16T09:36:16;-12.60;99.90
7427;DHT22;3755;59.316;18.092;2024-01-16T09:38:43;-12.70;99.90
7427;DHT22;3755;59.316;18.092;2024-01-16T09:41:11;-12.70;99.90
7427;DHT22;3755;59.316;18.092;2024-01-16T09:43:39;-12.70;99.90
7427;DHT22;3755;59.316;18.092;2024-01-16T09:46:08;-12.60;99.90
7427;DHT22;3755;59.316;18.092;2024-01-16T09:48:36;-12.50;99.90
7427;DHT22;3755;59.316;18.092;2024-01-16T09:51:05;-12.50;99.90
7427;DHT22;3755;59.316;18.092;2024-01-16T09:53:32;-12.50;99.90
7427;DHT22;3755;59.316;18.092;2024-01-16T09:56:02;-12.50;99.90
7427;DHT22;3755;59.316;18.092;2024-01-16T09:58:34;-12.10;99.90
7427;DHT22;3755;59.316;18.092;2024-01-16T10:01:04;-12.30;99.90
7427;DHT22;3755;59.316;18.092;2024-01-16T10:03:35;-12.30;99.90
7427;DHT22;3755;59.316;18.092;2024-01-16T10:06:04;-12.30;99.90
7427;DHT22;3755;59.316;18.092;2024-01-16T10:08:32;-12.30;99.90
7427;DHT22;3755;59.316;18.092;2024-01-16T10:11:00;-12.20;99.90
7427;DHT22;3755;59.316;18.092;2024-01-16T10:13:27;-12.20;99.90
7427;DHT22;3755;59.316;18.092;2024-01-16T10:15:56;-12.30;99.90
7427;DHT22;3755;59.316;18.092;2024-01-16T10:18:26;-12.30;99.90
7427;DHT22;3755;59.316;18.092;2024-01-16T10:20:54;-12.10;99.90
7427;DHT22;3755;59.316;18.092;2024-01-16T10:23:25;-11.50;99.90
7427;DHT22;3755;59.316;18.092;2024-01-16T10:26:11;-12.00;99.90
7427;DHT22;3755;59.316;18.092;2024-01-16T10:28:39;-11.90;99.90
7427;DHT22;3755;59.316;18.092;2024-01-16T10:31:07;-11.90;99.90
7427;DHT22;3755;59.316;18.092;2024-01-16T10:33:35;-12.00;99.90
7427;DHT22;3755;59.316;18.092;2024-01-16T10:36:13;-11.80;99.90
7427;DHT22;3755;59.316;18.092;2024-01-16T10:38:47;-11.60;99.90
7427;DHT22;3755;59.316;18.092;2024-01-16T10:41:17;-11.70;99.90
7427;DHT22;3755;59.316;18.092;2024-01-16T10:43:45;-11.60;99.90
7427;DHT22;3755;59.316;18.092;2024-01-16T10:46:13;-10.60;99.90
7427;DHT22;3755;59.316;18.092;2024-01-16T10:48:42;-11.20;99.90
7427;DHT22;3755;59.316;18.092;2024-01-16T10:51:13;-11.60;99.90
7427;DHT22;3755;59.316;18.092;2024-01-16T10:53:42;-11.60;99.90
7427;DHT22;3755;59.316;18.092;2024-01-16T10:56:11;-11.50;99.90
7427;DHT22;3755;59.316;18.092;2024-01-16T10:58:41;-11.50;99.90
7427;DHT22;3755;59.316;18.092;2024-01-16T11:01:11;-11.10;99.90
7427;DHT22;3755;59.316;18.092;2024-01-16T11:03:43;-11.10;99.90
7427;DHT22;3755;59.316;18.092;2024-01-16T11:06:15;-11.20;99.90
7427;DHT22;3755;59.316;18.092;2024-01-16T11:08:46;-11.20;99.90
7427;DHT22;3755;59.316;18.092;2024-01-16T11:11:13;-11.20;99.90
7427;DHT22;3755;59.316;18.092;2024-01-16T11:13:41;-11.20;99.90
7427;DHT22;3755;59.316;18.092;2024-01-16T11:16:11;-11.20;99.90
7427;DHT22;3755;59.316;18.092;2024-01-16T11:18:38;-11.10;99.90
7427;DHT22;3755;59.316;18.092;2024-01-16T11:21:08;-11.20;99.90
7427;DHT22;3755;59.316;18.092;2024-01-16T11:23:38;-11.10;99.90
7427;DHT22;3755;59.316;18.092;2024-01-16T11:26:24;-11.20;99.90
7427;DHT22;3755;59.316;18.092;2024-01-16T11:28:58;-11.20;99.90
7427;DHT22;3755;59.316;18.092;2024-01-16T11:31:30;-10.50;99.90
7427;DHT22;3755;59.316;18.092;2024-01-16T11:34:11;-11.20;99.90
7427;DHT22;3755;59.316;18.092;2024-01-16T11:36:50;-11.20;99.90
7427;DHT22;3755;59.316;18.092;2024-01-16T11:39:22;-11.30;99.90
7427;DHT22;3755;59.316;18.092;2024-01-16T11:41:51;-11.20;99.90
7427;DHT22;3755;59.316;18.092;2024-01-16T11:44:39;-11.10;99.90
7427;DHT22;3755;59.316;18.092;2024-01-16T11:47:07;-11.00;99.90
7427;DHT22;3755;59.316;18.092;2024-01-16T11:49:39;-10.90;99.90
7427;DHT22;3755;59.316;18.092;2024-01-16T11:52:07;-11.00;99.90
7427;DHT22;3755;59.316;18.092;2024-01-16T11:54:38;-11.00;99.90
7427;DHT22;3755;59.316;18.092;2024-01-16T12:00:18;-11.10;99.90
7427;DHT22;3755;59.316;18.092;2024-01-16T12:02:52;-11.20;99.90
7427;DHT22;3755;59.316;18.092;2024-01-16T12:05:20;-11.20;99.90
7427;DHT22;3755;59.316;18.092;2024-01-16T12:07:48;-11.10;99.90
7427;DHT22;3755;59.316;18.092;2024-01-16T12:10:18;-11.00;99.90
7427;DHT22;3755;59.316;18.092;2024-01-16T12:12:46;-11.10;99.90
7427;DHT22;3755;59.316;18.092;2024-01-16T12:15:14;-11.10;99.90
7427;DHT22;3755;59.316;18.092;2024-01-16T12:17:52;-10.90;99.90
7427;DHT22;3755;59.316;18.092;2024-01-16T12:20:22;-10.50;99.90
7427;DHT22;3755;59.316;18.092;2024-01-16T12:22:53;-10.90;99.90
7427;DHT22;3755;59.316;18.092;2024-01-16T12:25:23;-10.60;99.90
7427;DHT22;3755;59.316;18.092;2024-01-16T12:27:58;-10.50;99.90
7427;DHT22;3755;59.316;18.092;2024-01-16T12:30:26;-10.60;99.90
7427;DHT22;3755;59.316;18.092;2024-01-16T12:33:05;-10.60;99.90
7427;DHT22;3755;59.316;18.092;2024-01-16T12:35:34;-10.50;99.90
7427;DHT22;3755;59.316;18.092;2024-01-16T12:38:02;-10.30;99.90
7427;DHT22;3755;59.316;18.092;2024-01-16T12:40:32;-10.40;99.40
7427;DHT22;3755;59.316;18.092;2024-01-16T12:43:02;-10.70;99.80
7427;DHT22;3755;59.316;18.092;2024-01-16T12:45:30;-10.80;99.90
7427;DHT22;3755;59.316;18.092;2024-01-16T12:47:59;-10.20;99.90
7427;DHT22;3755;59.316;18.092;2024-01-16T12:50:27;-10.70;99.90
7427;DHT22;3755;59.316;18.092;2024-01-16T12:53:03;-10.70;99.90
7427;DHT22;3755;59.316;18.092;2024-01-16T12:55:34;-10.70;99.90
7427;DHT22;3755;59.316;18.092;2024-01-16T12:58:17;-10.90;99.90
7427;DHT22;3755;59.316;18.092;2024-01-16T13:00:45;-10.80;99.90
7427;DHT22;3755;59.316;18.092;2024-01-16T13:03:15;-10.80;99.90
7427;DHT22;3755;59.316;18.092;2024-01-16T13:05:52;-10.90;99.90
7427;DHT22;3755;59.316;18.092;2024-01-16T13:08:21;-10.50;99.90
7427;DHT22;3755;59.316;18.092;2024-01-16T13:11:02;-10.90;99.90
7427;DHT22;3755;59.316;18.092;2024-01-16T13:13:30;-10.90;99.90
7427;DHT22;3755;59.316;18.092;2024-01-16T13:15:58;-10.90;99.90
7427;DHT22;3755;59.316;18.092;2024-01-16T13:18:27;-10.90;99.90
7427;DHT22;3755;59.316;18.092;2024-01-16T13:20:55;-10.80;99.90
7427;DHT22;3755;59.316;18.092;2024-01-16T13:23:23;-10.70;99.90
7427;DHT22;3755;59.316;18.092;2024-01-16T13:25:53;-10.70;99.90
7427;DHT22;3755;59.316;18.092;2024-01-16T13:28:21;-11.50;99.90
7427;DHT22;3755;59.316;18.092;2024-01-16T13:30:48;-10.80;99.90
7427;DHT22;3755;59.316;18.092;2024-01-16T13:33:16;-10.80;99.90
7427;DHT22;3755;59.316;18.092;2024-01-16T13:35:44;-10.70;99.90
7427;DHT22;3755;59.316;18.092;2024-01-16T13:38:12;-10.50;99.90
7427;DHT22;3755;59.316;18.092;2024-01-16T13:40:42;-10.70;99.90
7427;DHT22;3755;59.316;18.092;2024-01-16T13:43:11;-10.80;99.90
7427;DHT22;3755;59.316;18.092;2024-01-16T13:45:38;-10.80;99.90
7427;DHT22;3755;59.316;18.092;2024-01-16T13:48:07;-10.80;99.90
7427;DHT22;3755;59.316;18.092;2024-01-16T13:50:35;-10.80;99.90
7427;DHT22;3755;59.316;18.092;2024-01-16T13:53:04;-10.90;99.90
7427;DHT22;3755;59.316;18.092;2024-01-16T13:55:31;-10.90;99.90
7427;DHT22;3755;59.316;18.092;2024-01-16T13:57:58;-10.90;99.90
7427;DHT22;3755;59.316;18.092;2024-01-16T14:00:27;-10.90;99.90
7427;DHT22;3755;59.316;18.092;2024-01-16T14:02:54;-10.50;99.90
7427;DHT22;3755;59.316;18.092;2024-01-16T14:05:22;-10.80;99.90
7427;DHT22;3755;59.316;18.092;2024-01-16T14:07:50;-10.90;99.90
7427;DHT22;3755;59.316;18.092;2024-01-16T14:10:18;-10.80;99.90
7427;DHT22;3755;59.316;18.092;2024-01-16T14:12:47;-10.70;99.90
7427;DHT22;3755;59.316;18.092;2024-01-16T14:15:15;-10.70;99.90
7427;DHT22;3755;59.316;18.092;2024-01-16T14:17:48;-9.90;99.90
7427;DHT22;3755;59.316;18.092;2024-01-16T14:20:16;-10.90;99.90
7427;DHT22;3755;59.316;18.092;2024-01-16T14:22:43;-10.90;99.90
7427;DHT22;3755;59.316;18.092;2024-01-16T14:25:11;-10.90;99.90
7427;DHT22;3755;59.316;18.092;2024-01-16T14:27:41;-10.40;99.90
7427;DHT22;3755;59.316;18.092;2024-01-16T14:30:13;-10.90;99.90
7427;DHT22;3755;59.316;18.092;2024-01-16T14:32:42;-10.90;99.90
7427;DHT22;3755;59.316;18.092;2024-01-16T14:35:13;-11.00;99.90
7427;DHT22;3755;59.316;18.092;2024-01-16T14:37:43;-10.90;99.90
7427;DHT22;3755;59.316;18.092;2024-01-16T14:40:19;-11.00;99.90
7427;DHT22;3755;59.316;18.092;2024-01-16T14:42:51;-11.00;99.90
7427;DHT22;3755;59.316;18.092;2024-01-16T14:45:20;-11.00;99.90
7427;DHT22;3755;59.316;18.092;2024-01-16T14:47:48;-11.00;99.90
7427;DHT22;3755;59.316;18.092;2024-01-16T14:50:19;-10.90;99.90
7427;DHT22;3755;59.316;18.092;2024-01-16T14:52:48;-10.90;99.90
7427;DHT22;3755;59.316;18.092;2024-01-16T14:55:16;-10.90;99.90
7427;DHT22;3755;59.316;18.092;2024-01-16T14:57:46;-10.80;99.90
7427;DHT22;3755;59.316;18.092;2024-01-16T15:00:18;-10.30;99.90
7427;DHT22;3755;59.316;18.092;2024-01-16T15:02:49;-10.70;99.90
7427;DHT22;3755;59.316;18.092;2024-01-16T15:05:19;-10.70;99.90
7427;DHT22;3755;59.316;18.092;2024-01-16T15:07:47;-10.70;99.90
7427;DHT22;3755;59.316;18.092;2024-01-16T15:10:17;-9.80;99.90
7427;DHT22;3755;59.316;18.092;2024-01-16T15:12:45;-9.50;99.90
7427;DHT22;3755;59.316;18.092;2024-01-16T15:15:14;-10.50;99.90
7427;DHT22;3755;59.316;18.092;2024-01-16T15:17:43;-10.60;99.90
7427;DHT22;3755;59.316;18.092;2024-01-16T15:20:11;-10.70;99.90
7427;DHT22;3755;59.316;18.092;2024-01-16T15:22:40;-10.60;99.90
7427;DHT22;3755;59.316;18.092;2024-01-16T15:25:10;-9.70;99.90
7427;DHT22;3755;59.316;18.092;2024-01-16T15:27:39;-10.50;99.90
7427;DHT22;3755;59.316;18.092;2024-01-16T15:30:07;-9.40;99.90
7427;DHT22;3755;59.316;18.092;2024-01-16T15:32:36;-10.60;99.90
7427;DHT22;3755;59.316;18.092;2024-01-16T15:35:04;-10.60;99.90
7427;DHT22;3755;59.316;18.092;2024-01-16T15:37:32;-10.70;99.90
7427;DHT22;3755;59.316;18.092;2024-01-16T15:40:01;-10.70;99.90
7427;DHT22;3755;59.316;18.092;2024-01-16T15:42:31;-11.30;99.90
7427;DHT22;3755;59.316;18.092;2024-01-16T15:45:01;-10.50;99.90
7427;DHT22;3755;59.316;18.092;2024-01-16T15:47:28;-10.90;99.90
7427;DHT22;3755;59.316;18.092;2024-01-16T15:49:57;-10.20;99.90
7427;DHT22;3755;59.316;18.092;2024-01-16T15:52:24;-10.70;99.90
7427;DHT22;3755;59.316;18.092;2024-01-16T15:54:51;-10.90;99.90
7427;DHT22;3755;59.316;18.092;2024-01-16T15:57:23;-10.90;99.90